Time;durP1;ratioP1;P1;durP2;ratioP2;P2;SDS_P1;SDS_P2;PMS_P1;PMS_P2;Temp;Humidity;BMP_temperature;BMP_pressure;BME280_temperature;BME280_humidity;BME280_pressure;Samples;Min_cycle;Max_cycle;Signal;HPM_P1;HPM_P2
2022/04/28 00:00:57;;;;;;;19.70;8.18;;;;;;;4.92;nan;102893.91;5013905;28;20100;-51
2022/04/28 00:03:23;;;;;;;16.92;8.10;;;;;;;4.88;nan;102885.97;5013782;28;20489;-52
2022/04/28 00:05:48;;;;;;;14.07;8.07;;;;;;;4.88;nan;102884.25;5013112;28;20049;-51
2022/04/28 00:08:14;;;;;;;13.05;8.30;;;;;;;4.92;nan;102898.25;5013832;28;20061;-54
2022/04/28 00:10:40;;;;;;;19.25;9.75;;;;;;;4.62;nan;102841.00;5013678;28;20112;-51
2022/04/28 00:13:06;;;;;;;11.50;7.35;;;;;;;4.89;nan;102899.06;4996155;28;20080;-51
2022/04/28 00:15:32;;;;;;;16.45;8.25;;;;;;;4.52;nan;102842.50;4996099;28;20066;-55
2022/04/28 00:17:57;;;;;;;13.73;8.48;;;;;;;4.47;nan;102833.69;4995766;28;20540;-53
2022/04/28 00:20:23;;;;;;;12.52;8.82;;;;;;;4.80;nan;102893.63;5012220;28;20030;-52
2022/04/28 00:22:48;;;;;;;14.70;8.82;;;;;;;4.73;nan;102890.84;5012302;28;20117;-51
2022/04/28 00:25:14;;;;;;;16.42;9.10;;;;;;;4.59;nan;102872.22;5013470;28;20057;-55
2022/04/28 00:27:39;;;;;;;11.27;8.30;;;;;;;4.65;nan;102887.16;5013605;28;20034;-52
2022/04/28 00:30:06;;;;;;;17.33;9.48;;;;;;;4.26;nan;102824.47;5013473;28;20384;-54
2022/04/28 00:32:31;;;;;;;19.50;9.05;;;;;;;4.59;nan;102897.41;5012025;28;20040;-55
2022/04/28 00:34:57;;;;;;;15.15;9.45;;;;;;;4.24;nan;102836.56;5012082;28;20033;-53
2022/04/28 00:37:22;;;;;;;15.27;8.75;;;;;;;4.10;nan;102815.38;5013309;28;20401;-53
2022/04/28 00:39:48;;;;;;;13.68;8.93;;;;;;;4.50;nan;102893.75;4995560;28;20400;-50
2022/04/28 00:42:15;;;;;;;16.15;10.68;;;;;;;4.03;nan;102825.63;5013365;28;20446;-51
2022/04/28 00:44:41;;;;;;;14.05;9.10;;;;;;;4.53;nan;102883.41;5013342;28;20026;-56
2022/04/28 00:47:07;;;;;;;18.38;9.52;;;;;;;4.54;nan;102887.78;5013338;28;20037;-52
2022/04/28 00:52:17;;;;;;;21.25;10.27;;;;;;;4.44;nan;102870.13;5012261;28;20096;-49
2022/04/28 00:54:43;;;;;;;16.63;9.50;;;;;;;4.53;nan;102885.13;5012859;28;20439;-52
2022/04/28 00:57:10;;;;;;;18.73;10.25;;;;;;;4.46;nan;102870.19;4995708;28;20042;-51
2022/04/28 00:59:38;;;;;;;14.85;10.73;;;;;;;4.44;nan;102869.25;5012997;28;20038;-54
2022/04/28 01:02:04;;;;;;;14.70;9.45;;;;;;;4.47;nan;102872.81;4995769;28;20551;-48
2022/04/28 01:04:30;;;;;;;16.98;9.77;;;;;;;4.14;nan;102811.13;5011739;28;20050;-52
2022/04/28 01:06:55;;;;;;;18.85;10.55;;;;;;;4.52;nan;102883.38;5012929;28;20370;-52
2022/04/28 01:09:20;;;;;;;12.05;9.35;;;;;;;4.47;nan;102885.84;5012872;28;20041;-52
2022/04/28 01:11:46;;;;;;;15.00;10.48;;;;;;;4.41;nan;102876.97;5012776;28;20459;-51
2022/04/28 01:14:11;;;;;;;17.00;10.32;;;;;;;4.41;nan;102879.59;5012200;28;20033;-53
2022/04/28 01:16:36;;;;;;;18.88;10.52;;;;;;;4.39;nan;102882.19;5012364;28;20048;-54
2022/04/28 01:19:02;;;;;;;22.90;11.63;;;;;;;4.11;nan;102824.09;5012528;28;20034;-52
2022/04/28 01:21:27;;;;;;;19.38;10.52;;;;;;;4.05;nan;102806.59;5011416;28;20026;-54
2022/04/28 01:23:55;;;;;;;19.55;10.93;;;;;;;4.49;nan;102881.53;5012738;28;20540;-53
2022/04/28 01:26:21;;;;;;;15.90;10.25;;;;;;;3.77;nan;102751.97;5012794;28;20038;-51
2022/04/28 01:28:48;;;;;;;20.13;10.15;;;;;;;4.52;nan;102889.44;5012472;28;20084;-51
2022/04/28 01:31:13;;;;;;;15.05;10.27;;;;;;;4.44;nan;102874.44;5012530;28;20389;-51
2022/04/28 01:33:38;;;;;;;17.05;10.18;;;;;;;4.41;nan;102871.75;5012226;28;20034;-54
2022/04/28 01:36:04;;;;;;;13.35;10.07;;;;;;;4.47;nan;102892.78;5012627;28;20103;-54
2022/04/28 01:38:29;;;;;;;17.00;10.13;;;;;;;4.47;nan;102898.88;5010962;28;20066;-50
2022/04/28 01:40:54;;;;;;;18.55;10.25;;;;;;;4.30;nan;102855.88;5012490;28;20540;-53
2022/04/28 01:43:20;;;;;;;14.90;10.32;;;;;;;4.45;nan;102886.66;5012330;28;20037;-52
2022/04/28 01:45:45;;;;;;;16.17;10.63;;;;;;;4.09;nan;102812.72;5011458;28;20116;-57
2022/04/28 01:48:11;;;;;;;19.15;10.80;;;;;;;4.44;nan;102893.59;5012387;28;20041;-55
2022/04/28 01:50:36;;;;;;;18.50;10.35;;;;;;;4.46;nan;102888.44;5012211;28;20038;-55
2022/04/28 01:55:46;;;;;;;14.80;10.02;;;;;;;4.47;nan;102887.56;4997148;28;20045;-53
2022/04/28 01:58:11;;;;;;;16.20;11.43;;;;;;;4.48;nan;102890.22;5011055;28;20397;-54
2022/04/28 02:00:37;;;;;;;16.38;10.00;;;;;;;4.41;nan;102879.59;5012189;28;20409;-51
2022/04/28 02:03:02;;;;;;;20.75;10.93;;;;;;;4.01;nan;102806.44;4994522;28;20033;-54
2022/04/28 02:05:28;;;;;;;19.67;11.05;;;;;;;4.08;nan;102819.69;5012246;28;20396;-53
2022/04/28 02:07:53;;;;;;;18.15;11.10;;;;;;;4.37;nan;102880.38;5012335;28;20140;-51
2022/04/28 02:10:19;;;;;;;19.25;11.02;;;;;;;3.93;nan;102807.16;5012254;28;20029;-52
2022/04/28 02:12:44;;;;;;;17.50;10.85;;;;;;;4.42;nan;102891.78;5012083;28;20037;-52
2022/04/28 02:15:10;;;;;;;18.05;10.70;;;;;;;4.28;nan;102870.59;5012519;28;20450;-54
2022/04/28 02:17:37;;;;;;;17.83;11.00;;;;;;;4.34;nan;102896.84;4994497;28;20040;-54
2022/04/28 02:20:05;;;;;;;15.75;11.77;;;;;;;4.28;nan;102894.06;5012185;28;20026;-53
2022/04/28 02:22:31;;;;;;;15.68;11.20;;;;;;;3.93;nan;102832.31;4994764;28;20038;-55
2022/04/28 02:24:56;;;;;;;20.00;11.02;;;;;;;4.28;nan;102901.00;5013354;28;20129;-50
2022/04/28 02:27:24;;;;;;;16.88;11.45;;;;;;;4.23;nan;102887.81;5014583;28;20080;-49
2022/04/28 02:29:49;;;;;;;16.70;11.48;;;;;;;3.89;nan;102818.31;5015736;28;20034;-52
2022/04/28 02:32:15;;;;;;;14.65;10.27;;;;;;;3.96;nan;102854.13;5015615;28;20586;-56
2022/04/28 02:34:40;;;;;;;21.08;11.52;;;;;;;3.83;nan;102831.19;5016070;28;20065;-52
2022/04/28 02:37:05;;;;;;;17.75;10.82;;;;;;;4.17;nan;102894.63;5015485;28;20116;-49
2022/04/28 02:39:32;;;;;;;17.77;10.45;;;;;;;3.73;nan;102828.31;5015712;28;20184;-53
2022/04/28 02:41:58;;;;;;;15.05;10.82;;;;;;;4.07;nan;102896.09;5015452;28;20117;-52
2022/04/28 02:44:23;;;;;;;18.63;11.82;;;;;;;3.71;nan;102842.97;5015350;28;20180;-49
2022/04/28 02:46:48;;;;;;;18.05;12.45;;;;;;;4.02;nan;102900.31;5015477;28;20070;-52
2022/04/28 02:49:14;;;;;;;18.80;11.30;;;;;;;3.73;nan;102855.22;5015252;28;20036;-48
2022/04/28 02:51:40;;;;;;;16.58;12.77;;;;;;;3.97;nan;102892.34;5015161;28;20029;-51
2022/04/28 02:54:05;;;;;;;17.30;11.82;;;;;;;3.93;nan;102893.13;5015291;28;20053;-54
2022/04/28 02:56:31;;;;;;;26.20;14.98;;;;;;;3.68;nan;102851.59;5015262;28;20120;-52
2022/04/28 02:58:57;;;;;;;19.25;13.15;;;;;;;3.86;nan;102893.78;5013836;28;20124;-50
2022/04/28 03:01:23;;;;;;;15.75;12.98;;;;;;;3.89;nan;102895.59;5015055;28;20149;-52
2022/04/28 03:03:49;;;;;;;24.48;13.98;;;;;;;3.48;nan;102831.94;5015214;28;20473;-48
2022/04/28 03:11:42;;;;;;;22.05;13.32;;;;;;;3.73;nan;102891.69;5015068;28;20083;-49
2022/04/28 03:14:09;;;;;;;19.60;13.07;;;;;;;3.69;nan;102889.84;5015077;28;20042;-48
2022/04/28 03:16:35;;;;;;;21.08;14.07;;;;;;;3.67;nan;102893.25;5014896;28;20033;-48
2022/04/28 03:19:01;;;;;;;24.58;15.38;;;;;;;3.54;nan;102878.97;5014879;28;20038;-50
2022/04/28 03:21:26;;;;;;;21.15;14.70;;;;;;;3.60;nan;102888.69;5014810;28;20042;-48
2022/04/28 03:23:51;;;;;;;19.98;13.70;;;;;;;3.58;nan;102895.56;5014744;28;20037;-49
2022/04/28 03:26:17;;;;;;;21.27;15.32;;;;;;;3.55;nan;102895.50;5014616;28;20045;-50
2022/04/28 03:28:42;;;;;;;27.33;14.95;;;;;;;3.50;nan;102892.75;5014694;28;20038;-49
2022/04/28 03:31:08;;;;;;;22.63;15.48;;;;;;;3.01;nan;102814.06;5014407;28;20152;-50
2022/04/28 03:33:34;;;;;;;20.10;14.70;;;;;;;3.44;nan;102892.59;5013351;28;20104;-49
2022/04/28 03:35:59;;;;;;;22.95;15.45;;;;;;;3.38;nan;102882.88;5013972;28;20038;-51
2022/04/28 03:38:24;;;;;;;24.08;16.02;;;;;;;3.43;nan;102888.19;5014091;28;20050;-51
2022/04/28 03:40:49;;;;;;;23.35;14.02;;;;;;;2.99;nan;102818.34;5014254;28;20169;-50
2022/04/28 03:43:15;;;;;;;20.75;15.55;;;;;;;3.33;nan;102888.75;4997129;28;20180;-54
2022/04/28 03:45:41;;;;;;;19.45;14.52;;;;;;;3.20;nan;102866.72;5014213;28;20401;-55
2022/04/28 03:48:09;;;;;;;19.75;14.95;;;;;;;3.19;nan;102874.47;5014369;28;20038;-51
2022/04/28 03:50:38;;;;;;;23.40;16.10;;;;;;;3.25;nan;102898.94;5013068;28;20404;-52
2022/04/28 03:53:04;;;;;;;24.30;16.05;;;;;;;3.17;nan;102897.84;5014081;28;20033;-53
2022/04/28 03:55:30;;;;;;;22.42;14.68;;;;;;;2.50;nan;102815.94;5013931;28;20117;-52
2022/04/28 03:57:56;;;;;;;23.38;15.05;;;;;;;2.70;nan;102839.16;5014246;28;20066;-51
2022/04/28 04:00:22;;;;;;;20.98;15.48;;;;;;;2.67;nan;102830.38;5014236;28;20401;-54
2022/04/28 04:02:48;;;;;;;24.13;15.82;;;;;;;2.99;nan;102888.56;4996500;28;20049;-57
2022/04/28 04:05:14;;;;;;;24.17;15.52;;;;;;;2.56;nan;102822.25;4996407;28;20041;-54
2022/04/28 04:07:41;;;;;;;22.25;16.30;;;;;;;2.90;nan;102896.09;4996286;28;20030;-55
2022/04/28 04:10:08;;;;;;;30.35;16.77;;;;;;;2.95;nan;102897.16;5013772;28;20026;-54
2022/04/28 04:12:33;;;;;;;22.85;16.98;;;;;;;2.59;nan;102827.53;5012957;28;20030;-55
2022/04/28 04:14:59;;;;;;;28.25;18.20;;;;;;;2.87;nan;102881.28;5013626;28;20048;-52
2022/04/28 04:17:24;;;;;;;23.17;17.15;;;;;;;2.91;nan;102890.06;5013811;28;20038;-55
2022/04/28 04:19:50;;;;;;;25.63;17.40;;;;;;;2.66;nan;102845.06;5013622;28;20037;-51
2022/04/28 04:22:15;;;;;;;25.58;16.83;;;;;;;2.54;nan;102828.22;5013981;28;20128;-51
2022/04/28 04:24:41;;;;;;;30.02;18.85;;;;;;;2.93;nan;102901.41;5013508;28;20022;-56
2022/04/28 04:27:06;;;;;;;30.27;19.30;;;;;;;2.85;nan;102882.97;4996256;28;20184;-52
2022/04/28 04:29:32;;;;;;;29.05;19.02;;;;;;;2.93;nan;102902.28;5013786;28;20044;-50
2022/04/28 04:34:41;;;;;;;27.70;19.92;;;;;;;2.61;nan;102846.66;5013610;28;20103;-54
2022/04/28 04:37:06;;;;;;;30.58;19.75;;;;;;;2.99;nan;102910.28;5013458;28;20137;-51
2022/04/28 04:39:32;;;;;;;26.77;18.92;;;;;;;3.00;nan;102911.16;5013634;28;20038;-50
2022/04/28 04:41:57;;;;;;;31.42;18.75;;;;;;;2.91;nan;102897.88;4995874;28;20404;-50
2022/04/28 04:44:22;;;;;;;27.42;19.67;;;;;;;2.63;nan;102854.50;5013274;28;20030;-51
2022/04/28 04:46:48;;;;;;;29.33;19.52;;;;;;;3.03;nan;102925.16;5012871;28;20030;-53
2022/04/28 04:49:13;;;;;;;26.83;18.58;;;;;;;3.04;nan;102913.00;5012038;28;20041;-53
2022/04/28 04:51:38;;;;;;;29.30;19.17;;;;;;;2.68;nan;102850.34;5013029;28;20481;-54
2022/04/28 04:54:04;;;;;;;28.13;20.00;;;;;;;3.14;nan;102931.56;5013042;28;20041;-54
2022/04/28 04:56:29;;;;;;;29.80;19.27;;;;;;;3.10;nan;102908.88;5011694;28;20029;-49
2022/04/28 04:58:55;;;;;;;25.67;18.35;;;;;;;3.23;nan;102934.47;5012774;28;20037;-49
2022/04/28 05:01:20;;;;;;;29.30;18.15;;;;;;;3.30;nan;102932.91;5013060;28;20073;-52
2022/04/28 05:03:45;;;;;;;24.08;18.40;;;;;;;2.91;nan;102880.56;5012758;28;20081;-54
2022/04/28 05:06:11;;;;;;;23.50;17.85;;;;;;;3.28;nan;102939.81;5013005;28;20049;-51
2022/04/28 05:08:36;;;;;;;30.08;18.45;;;;;;;3.45;nan;102946.41;5012857;28;20041;-53
2022/04/28 05:11:01;;;;;;;25.15;17.27;;;;;;;3.54;nan;102956.19;5012973;28;20034;-53
2022/04/28 05:13:27;;;;;;;24.70;16.75;;;;;;;3.60;nan;102944.25;5013019;28;20465;-53
2022/04/28 05:15:52;;;;;;;28.25;17.83;;;;;;;3.65;nan;102945.25;5012655;28;20044;-50
2022/04/28 05:18:17;;;;;;;27.08;17.38;;;;;;;3.33;nan;102879.22;5011487;28;20045;-51
2022/04/28 05:20:43;;;;;;;22.92;17.73;;;;;;;3.60;nan;102918.22;5012547;28;20506;-49
2022/04/28 05:23:08;;;;;;;26.50;15.77;;;;;;;3.88;nan;102958.97;4995064;28;20099;-49
2022/04/28 05:25:34;;;;;;;24.17;16.00;;;;;;;3.59;nan;102897.34;5012800;28;20061;-54
2022/04/28 05:27:59;;;;;;;25.73;16.70;;;;;;;3.92;nan;102943.47;5012294;28;20044;-53
2022/04/28 05:30:24;;;;;;;25.23;15.38;;;;;;;4.10;nan;102963.94;5012291;28;20405;-52
2022/04/28 05:32:50;;;;;;;24.02;14.95;;;;;;;3.89;nan;102917.31;5012383;28;20103;-49
2022/04/28 05:35:15;;;;;;;25.83;15.35;;;;;;;4.30;nan;102961.88;5012360;28;20033;-50
2022/04/28 05:37:41;;;;;;;23.02;15.00;;;;;;;4.49;nan;102977.19;5012213;28;20100;-54
2022/04/28 05:40:07;;;;;;;20.67;14.23;;;;;;;4.68;nan;102968.09;5011283;28;20036;-50
2022/04/28 05:48:01;;;;;;;18.02;12.85;;;;;;;5.19;nan;102984.16;5012255;28;20044;-52
2022/04/28 05:50:27;;;;;;;18.73;12.90;;;;;;;5.23;nan;102978.13;5012154;28;20041;-53
2022/04/28 05:52:52;;;;;;;18.95;12.57;;;;;;;5.04;nan;102929.84;4994833;28;20341;-54
2022/04/28 05:55:18;;;;;;;28.67;12.77;;;;;;;5.55;nan;103003.25;5012389;28;20481;-52
2022/04/28 05:57:43;;;;;;;25.50;12.77;;;;;;;5.69;nan;103010.56;5011164;28;20037;-54
2022/04/28 06:00:09;;;;;;;21.00;11.60;;;;;;;5.47;nan;102947.38;5014010;28;20523;-54
2022/04/28 06:02:35;;;;;;;21.73;12.43;;;;;;;5.90;nan;103009.28;4998368;28;20037;-52
2022/04/28 06:05:01;;;;;;;16.48;11.18;;;;;;;6.04;nan;103007.88;5016328;28;20044;-50
2022/04/28 06:07:26;;;;;;;16.13;10.82;;;;;;;5.87;nan;102956.94;5015960;28;20124;-50
2022/04/28 06:09:52;;;;;;;15.30;10.23;;;;;;;6.28;nan;103015.31;4998588;28;20034;-52
2022/04/28 06:12:17;;;;;;;17.13;10.95;;;;;;;6.16;nan;102981.94;5016106;28;20050;-52
2022/04/28 06:14:43;;;;;;;17.00;10.02;;;;;;;6.59;nan;103041.22;5016096;28;20050;-56
2022/04/28 06:17:08;;;;;;;15.05;9.40;;;;;;;6.50;nan;103009.66;4998314;28;20065;-53
2022/04/28 06:19:34;;;;;;;20.33;10.48;;;;;;;6.80;nan;103020.66;4998444;28;20030;-53
2022/04/28 06:21:59;;;;;;;17.85;11.25;;;;;;;6.65;nan;102973.31;5016145;28;20041;-56
2022/04/28 06:24:25;;;;;;;14.75;9.82;;;;;;;6.76;nan;102985.72;5015930;28;20041;-55
2022/04/28 06:26:51;;;;;;;17.38;9.65;;;;;;;7.29;nan;103061.66;5015694;28;20057;-54
2022/04/28 06:29:16;;;;;;;10.90;8.00;;;;;;;7.43;nan;103067.13;5014561;28;20087;-54
2022/04/28 06:31:42;;;;;;;14.98;9.70;;;;;;;7.19;nan;103010.88;4997974;28;20030;-52
2022/04/28 06:34:07;;;;;;;14.82;9.68;;;;;;;7.28;nan;103002.25;5016013;28;20143;-53
2022/04/28 06:36:34;;;;;;;19.00;9.70;;;;;;;7.48;nan;103015.66;5015227;28;20038;-53
2022/04/28 06:39:00;;;;;;;12.73;8.70;;;;;;;7.99;nan;103065.34;4997806;28;20037;-52
2022/04/28 06:41:25;;;;;;;19.48;7.43;;;;;;;7.79;nan;103023.13;5015652;28;20042;-54
2022/04/28 06:43:50;;;;;;;15.85;8.55;;;;;;;8.00;nan;103041.75;5015475;28;20037;-53
2022/04/28 06:46:16;;;;;;;11.73;6.90;;;;;;;8.09;nan;103031.38;5015535;28;20029;-51
2022/04/28 06:48:41;;;;;;;9.10;6.35;;;;;;;8.36;nan;103078.97;5015678;28;20034;-53
2022/04/28 06:51:07;;;;;;;12.18;7.28;;;;;;;8.31;nan;103033.44;4998045;28;20038;-52
2022/04/28 06:53:32;;;;;;;18.92;7.15;;;;;;;8.40;nan;103048.41;5014263;28;20056;-52
2022/04/28 06:55:58;;;;;;;14.07;6.47;;;;;;;8.89;nan;103123.34;5015212;28;20079;-51
2022/04/28 06:58:23;;;;;;;10.82;6.25;;;;;;;8.76;nan;103085.56;5015246;28;20495;-55
2022/04/28 07:00:52;;;;;;;10.45;6.25;;;;;;;9.08;nan;103120.03;5020551;28;20040;-51
2022/04/28 07:03:18;;;;;;;9.57;6.03;;;;;;;9.04;nan;103086.72;5036432;28;20041;-52
2022/04/28 07:05:43;;;;;;;10.68;5.95;;;;;;;9.19;nan;103081.63;5034657;28;20465;-51
2022/04/28 07:08:08;;;;;;;12.95;6.07;;;;;;;9.70;nan;103139.00;5049117;28;20480;-54
2022/04/28 07:10:37;;;;;;;9.02;4.80;;;;;;;9.88;nan;103104.94;5053134;28;20033;-54
2022/04/28 07:13:03;;;;;;;8.68;5.13;;;;;;;10.21;nan;103127.09;5052283;28;20041;-51
2022/04/28 07:15:28;;;;;;;8.05;4.05;;;;;;;10.46;nan;103116.69;5053587;28;20109;-52
2022/04/28 07:17:53;;;;;;;12.20;4.50;;;;;;;11.03;nan;103159.91;5054462;28;20064;-55
2022/04/28 07:20:19;;;;;;;9.75;4.57;;;;;;;11.55;nan;103145.03;5054680;28;20043;-53
2022/04/28 07:22:44;;;;;;;10.95;4.75;;;;;;;11.64;nan;103103.72;5044354;28;20046;-53
2022/04/28 07:25:09;;;;;;;10.07;4.28;;;;;;;12.34;nan;103159.91;5034488;28;20038;-53
2022/04/28 07:27:35;;;;;;;10.05;4.63;;;;;;;12.70;nan;103161.53;5034480;28;20412;-50
2022/04/28 07:30:02;;;;;;;7.65;3.95;;;;;;;12.85;nan;103181.72;5016570;28;20084;-54
2022/04/28 07:32:27;;;;;;;10.95;4.55;;;;;;;12.98;nan;103184.31;5035809;28;20033;-57
2022/04/28 07:34:53;;;;;;;8.10;3.83;;;;;;;13.02;nan;103144.63;5034024;28;20454;-56
2022/04/28 07:37:18;;;;;;;8.00;3.75;;;;;;;13.47;nan;103184.91;5033626;28;20049;-53
2022/04/28 07:39:43;;;;;;;8.45;3.38;;;;;;;13.65;nan;103175.06;5033982;28;20419;-55
2022/04/28 07:42:09;;;;;;;8.85;3.67;;;;;;;13.47;nan;103184.91;5035122;28;20037;-54
2022/04/28 07:44:36;;;;;;;8.00;3.38;;;;;;;13.51;nan;103176.03;5033984;28;20436;-56
2022/04/28 07:47:01;;;;;;;6.32;3.53;;;;;;;13.15;nan;103134.00;5034045;28;20041;-55
2022/04/28 07:49:26;;;;;;;5.40;3.90;;;;;;;13.64;nan;103178.59;5040332;28;20041;-56
2022/04/28 07:51:52;;;;;;;10.90;3.88;;;;;;;14.13;nan;103128.72;5050087;28;20071;-54
2022/04/28 07:54:17;;;;;;;7.00;3.67;;;;;;;14.36;nan;103134.69;5034133;28;20041;-55
2022/04/28 07:56:45;;;;;;;4.90;3.35;;;;;;;14.70;nan;103132.47;5033632;28;20033;-57
2022/04/28 07:59:11;;;;;;;6.55;3.10;;;;;;;15.25;nan;103193.59;5033928;28;20025;-54
2022/04/28 08:01:37;;;;;;;7.13;3.65;;;;;;;15.20;nan;103183.06;5015923;28;20033;-57
2022/04/28 08:04:02;;;;;;;6.57;3.50;;;;;;;15.44;nan;103198.59;5031691;28;20033;-57
2022/04/28 08:06:28;;;;;;;8.50;3.65;;;;;;;15.35;nan;103126.22;5033814;28;20033;-57
2022/04/28 08:08:53;;;;;;;6.03;3.50;;;;;;;15.46;nan;103138.41;5026863;28;20060;-56
2022/04/28 08:11:18;;;;;;;6.53;3.50;;;;;;;15.91;nan;103200.50;5028261;28;20108;-57
2022/04/28 08:13:44;;;;;;;7.22;3.80;;;;;;;15.51;nan;103152.50;5032481;28;20041;-53
2022/04/28 08:16:09;;;;;;;6.90;3.97;;;;;;;15.68;nan;103178.78;5032004;28;20092;-55
2022/04/28 08:18:37;;;;;;;9.40;4.28;;;;;;;15.16;nan;103192.81;5033036;28;20113;-57
2022/04/28 08:21:03;;;;;;;8.27;4.13;;;;;;;14.65;nan;103201.47;5033174;28;20037;-57
2022/04/28 08:23:29;;;;;;;9.48;4.47;;;;;;;13.93;nan;103152.75;5011126;28;20124;-56
2022/04/28 08:25:54;;;;;;;4.97;3.40;;;;;;;14.50;nan;103188.41;5015470;28;20520;-57
2022/04/28 08:28:20;;;;;;;8.27;4.05;;;;;;;13.54;nan;103140.78;5015778;28;20033;-57
2022/04/28 08:30:47;;;;;;;9.52;4.72;;;;;;;13.62;nan;103202.44;5033276;28;20050;-56
2022/04/28 08:33:12;;;;;;;4.57;3.55;;;;;;;13.16;nan;103193.94;5033241;28;20076;-58
2022/04/28 08:35:37;;;;;;;8.35;4.00;;;;;;;12.57;nan;103143.09;5033471;28;20057;-57
2022/04/28 08:38:03;;;;;;;7.85;4.47;;;;;;;13.24;nan;103189.47;5032800;28;20057;-55
2022/04/28 08:40:28;;;;;;;7.47;4.13;;;;;;;13.96;nan;103143.00;5032924;28;20103;-55
2022/04/28 08:42:55;;;;;;;7.70;4.25;;;;;;;14.60;nan;103185.59;5032711;28;20039;-58
2022/04/28 08:45:28;;;;;;;6.85;4.25;;;;;;;14.92;nan;103134.81;5015724;28;20091;-53
2022/04/28 08:47:57;;;;;;;5.75;4.20;;;;;;;15.65;nan;103157.59;5033229;28;20037;-58
2022/04/28 08:50:22;;;;;;;5.35;3.38;;;;;;;16.44;nan;103198.66;5015354;28;20045;-58
2022/04/28 08:52:48;;;;;;;10.50;4.28;;;;;;;16.68;nan;103145.00;5031557;28;20179;-58
2022/04/28 08:55:16;;;;;;;8.30;4.15;;;;;;;16.49;nan;103147.13;5015062;28;20048;-56
2022/04/28 08:57:42;;;;;;;10.63;4.78;;;;;;;16.42;nan;103203.13;5032516;28;20404;-57
2022/04/28 09:00:07;;;;;;;11.10;4.00;;;;;;;15.83;nan;103197.13;5032931;28;20044;-58
2022/04/28 09:02:33;;;;;;;6.63;3.50;;;;;;;15.68;nan;103207.97;5015009;28;20499;-57
2022/04/28 09:05:04;;;;;;;6.05;3.60;;;;;;;15.65;nan;103210.69;5015039;28;20037;-57
2022/04/28 09:07:30;;;;;;;;;;;;;;;15.40;nan;103201.31;5032863;28;20040;-53
2022/04/28 09:09:56;;;;;;;5.57;3.38;;;;;;;15.15;nan;103158.34;5014515;28;19917;-59
2022/04/28 09:12:21;;;;;;;6.05;3.30;;;;;;;15.96;nan;103204.00;5014571;28;20032;-58
2022/04/28 09:14:47;;;;;;;7.28;3.47;;;;;;;16.17;nan;103192.94;5014572;28;20037;-55
2022/04/28 09:17:12;;;;;;;6.93;2.88;;;;;;;16.76;nan;103151.03;5030928;28;20029;-58
2022/04/28 09:19:39;;;;;;;8.10;3.60;;;;;;;17.35;nan;103190.50;5014461;28;20377;-58
2022/04/28 09:22:12;;;;;;;6.32;3.22;;;;;;;17.31;nan;103202.13;5032271;28;20034;-57
2022/04/28 09:24:39;;;;;;;5.18;2.83;;;;;;;17.07;nan;103197.38;5032207;28;20025;-57
2022/04/28 09:27:05;;;;;;;4.63;2.83;;;;;;;17.24;nan;103184.56;5032261;28;20037;-57
2022/04/28 09:29:36;;;;;;;5.53;3.15;;;;;;;17.50;nan;103189.25;4998172;28;20038;-59
2022/04/28 09:32:02;;;;;;;;;;;;;;;17.81;nan;103187.63;5032593;28;20025;-58
2022/04/28 09:34:27;;;;;;;8.77;3.47;;;;;;;17.47;nan;103191.13;5031576;28;20442;-56
2022/04/28 09:36:54;;;;;;;8.02;3.83;;;;;;;17.69;nan;103131.97;5013642;28;20515;-59
2022/04/28 09:42:31;;;;;;;4.95;2.97;;;;;;;18.38;nan;103192.31;5032116;28;20056;-57
2022/04/28 09:45:00;;;;;;;5.07;3.65;;;;;;;18.71;nan;103179.88;5031548;28;20121;-57
2022/04/28 09:47:27;;;;;;;5.43;3.92;;;;;;;18.29;nan;103118.81;5031407;28;20040;-58
2022/04/28 09:49:53;;;;;;;8.18;4.35;;;;;;;18.59;nan;103193.56;5031425;28;20156;-55
2022/04/28 09:52:42;;;;;;;6.63;4.03;;;;;;;17.81;nan;103189.41;5031712;28;20028;-59
2022/04/28 09:55:08;;;;;;;5.95;3.85;;;;;;;17.17;nan;103190.91;5031071;28;20045;-56
2022/04/28 09:57:33;;;;;;;7.30;4.15;;;;;;;17.03;nan;103189.47;5014225;28;20021;-58
2022/04/28 09:59:59;;;;;;;7.57;3.72;;;;;;;17.68;nan;103143.56;5030160;28;20441;-58
2022/04/28 10:02:27;;;;;;;8.32;4.22;;;;;;;18.01;nan;103184.44;5031716;28;20029;-56
2022/04/28 10:04:54;;;;;;;7.65;3.92;;;;;;;18.08;nan;103127.38;5031770;28;20029;-59
2022/04/28 10:07:20;;;;;;;7.75;4.13;;;;;;;18.47;nan;103186.75;5013595;28;20037;-56
2022/04/28 10:09:48;;;;;;;6.97;4.10;;;;;;;18.28;nan;103169.47;5013823;28;20052;-57
2022/04/28 10:12:19;;;;;;;8.35;4.40;;;;;;;18.48;nan;103176.03;5031578;28;20384;-57
2022/04/28 10:14:45;;;;;;;8.02;4.47;;;;;;;17.79;nan;103124.63;5013692;28;20124;-57
2022/04/28 10:17:20;;;;;;;8.38;4.32;;;;;;;17.94;nan;103167.75;5013967;28;20034;-59
2022/04/28 10:19:50;;;;;;;5.20;3.55;;;;;;;17.73;nan;103119.47;5031516;28;20030;-57
2022/04/28 10:22:20;;;;;;;5.85;3.63;;;;;;;17.53;nan;103129.72;5014067;28;20125;-57
2022/04/28 10:33:19;;;;;;;7.25;3.88;;;;;;;18.35;nan;103177.28;5031643;28;20071;-58
2022/04/28 10:35:46;;;;;;;6.65;3.63;;;;;;;19.34;nan;103180.56;5031270;28;20045;-58
2022/04/28 10:38:15;;;;;;;9.40;4.07;;;;;;;20.00;nan;103169.44;5031588;28;20049;-58
2022/04/28 10:40:59;;;;;;;8.30;4.18;;;;;;;20.89;nan;103164.38;5031617;28;20365;-57
2022/04/28 10:43:30;;;;;;;7.28;4.38;;;;;;;20.54;nan;103176.44;5031513;28;20037;-58
2022/04/28 10:45:56;;;;;;;7.00;3.83;;;;;;;20.24;nan;103175.72;5032594;28;20033;-58
2022/04/28 10:48:32;;;;;;;6.35;3.38;;;;;;;20.18;nan;103103.72;5035214;28;20038;-60
2022/04/28 10:51:16;;;;;;;7.32;3.58;;;;;;;20.42;nan;103174.22;5017490;28;20029;-59
2022/04/28 10:54:05;;;;;;;5.90;3.40;;;;;;;20.01;nan;103171.19;5017039;28;20034;-59
2022/04/28 10:56:54;;;;;;;5.97;3.70;;;;;;;20.04;nan;103172.88;5034674;28;20037;-59
2022/04/28 10:59:29;;;;;;;5.65;4.15;;;;;;;18.97;nan;103182.63;5017187;28;20044;-60
2022/04/28 11:02:10;;;;;;;6.53;3.80;;;;;;;19.68;nan;103172.31;5034817;28;20041;-59
2022/04/28 11:04:36;;;;;;;8.27;4.20;;;;;;;20.69;nan;103166.00;5034625;28;20037;-57
2022/04/28 11:07:05;;;;;;;7.43;3.65;;;;;;;19.76;nan;103113.28;5034876;28;20041;-56
2022/04/28 11:09:32;;;;;;;6.68;3.50;;;;;;;19.82;nan;103175.41;5017262;28;20036;-56
2022/04/28 11:12:12;;;;;;;6.20;3.58;;;;;;;20.09;nan;103064.81;5016885;28;20079;-56
2022/04/28 11:14:45;;;;;;;5.97;3.57;;;;;;;20.76;nan;103108.66;5034529;28;20087;-57
2022/04/28 11:17:11;;;;;;;4.68;3.55;;;;;;;20.53;nan;103108.66;5034300;28;20035;-57
2022/04/28 11:19:36;;;;;;;6.15;4.00;;;;;;;20.55;nan;103162.97;5034514;28;20034;-56
2022/04/28 11:22:02;;;;;;;5.72;3.67;;;;;;;20.25;nan;103160.53;5034804;28;20112;-58
2022/04/28 11:24:27;;;;;;;9.95;3.95;;;;;;;20.75;nan;103164.94;5034612;28;20236;-52
2022/04/28 11:26:54;;;;;;;7.00;4.15;;;;;;;19.54;nan;103054.38;5034383;28;20033;-52
2022/04/28 11:29:22;;;;;;;6.90;4.18;;;;;;;19.74;nan;103172.13;5034279;28;20408;-56
2022/04/28 11:31:49;;;;;;;7.38;4.00;;;;;;;20.69;nan;103166.00;5034271;28;20029;-57
2022/04/28 11:34:14;;;;;;;9.40;4.20;;;;;;;20.66;nan;103168.84;5016716;28;20037;-52
2022/04/28 11:36:41;;;;;;;8.02;4.07;;;;;;;20.64;nan;103164.44;5034062;28;20046;-57
2022/04/28 11:39:08;;;;;;;10.88;4.70;;;;;;;20.18;nan;103159.88;5034183;28;20029;-53
2022/04/28 11:41:34;;;;;;;7.20;4.50;;;;;;;20.08;nan;103139.75;5034220;28;20030;-57
2022/04/28 11:44:07;;;;;;;9.45;4.45;;;;;;;20.42;nan;103091.28;5034019;28;20128;-49
2022/04/28 11:46:34;;;;;;;7.57;4.07;;;;;;;20.81;nan;103161.16;5034155;28;20037;-53
2022/04/28 11:48:59;;;;;;;8.10;3.92;;;;;;;21.81;nan;103144.50;5033900;28;20119;-56
2022/04/28 11:51:25;;;;;;;9.13;4.43;;;;;;;22.02;nan;103148.97;5033753;28;20480;-51
2022/04/28 11:53:52;;;;;;;7.22;5.20;;;;;;;22.21;nan;103149.91;5016175;28;20044;-58
2022/04/28 11:56:20;;;;;;;5.20;4.50;;;;;;;22.04;nan;103154.25;5033565;28;20029;-51
2022/04/28 11:58:50;;;;;;;8.23;5.28;;;;;;;21.20;nan;103122.09;5032821;28;20087;-55
2022/04/28 12:01:16;;;;;;;7.60;5.28;;;;;;;21.12;nan;103157.22;5033759;28;20468;-53
2022/04/28 12:03:56;;;;;;;7.97;5.30;;;;;;;21.43;nan;103143.44;5033537;28;20072;-52
2022/04/28 12:06:22;;;;;;;7.53;5.00;;;;;;;21.15;nan;103087.47;5033653;28;20068;-59